sensor_id;sensor_type;location;lat;lon;timestamp;P1;durP1;ratioP1;P2;durP2;ratioP2
14121;SDS011;7139;48.114;11.442;2023-02-11T00:01:55;22.83;;;16.17;;
14121;SDS011;7139;48.114;11.442;2023-02-11T00:04:21;24.43;;;16.47;;
14121;SDS011;7139;48.114;11.442;2023-02-11T00:06:48;22.03;;;16.33;;
14121;SDS011;7139;48.114;11.442;2023-02-11T00:09:17;23.90;;;16.83;;
14121;SDS011;7139;48.114;11.442;2023-02-11T00:11:43;22.80;;;16.70;;
14121;SDS011;7139;48.114;11.442;2023-02-11T00:14:10;24.90;;;15.97;;
14121;SDS011;7139;48.114;11.442;2023-02-11T00:16:37;21.00;;;16.27;;
14121;SDS011;7139;48.114;11.442;2023-02-11T00:19:04;21.50;;;15.60;;
14121;SDS011;7139;48.114;11.442;2023-02-11T00:21:31;22.90;;;16.60;;
14121;SDS011;7139;48.114;11.442;2023-02-11T00:23:58;24.50;;;17.03;;
14121;SDS011;7139;48.114;11.442;2023-02-11T00:26:28;23.13;;;16.53;;
14121;SDS011;7139;48.114;11.442;2023-02-11T00:28:57;25.80;;;17.10;;
14121;SDS011;7139;48.114;11.442;2023-02-11T00:31:24;25.87;;;16.80;;
14121;SDS011;7139;48.114;11.442;2023-02-11T00:33:52;23.23;;;17.83;;
14121;SDS011;7139;48.114;11.442;2023-02-11T00:36:20;26.33;;;17.13;;
14121;SDS011;7139;48.114;11.442;2023-02-11T00:38:48;24.23;;;17.77;;
14121;SDS011;7139;48.114;11.442;2023-02-11T00:41:16;24.07;;;17.37;;
14121;SDS011;7139;48.114;11.442;2023-02-11T00:43:45;21.83;;;16.37;;
14121;SDS011;7139;48.114;11.442;2023-02-11T00:46:12;22.97;;;16.67;;
14121;SDS011;7139;48.114;11.442;2023-02-11T00:48:40;24.30;;;17.00;;
14121;SDS011;7139;48.114;11.442;2023-02-11T00:51:07;25.53;;;17.63;;
14121;SDS011;7139;48.114;11.442;2023-02-11T00:53:34;21.80;;;16.60;;
14121;SDS011;7139;48.114;11.442;2023-02-11T00:56:02;24.53;;;17.33;;
14121;SDS011;7139;48.114;11.442;2023-02-11T00:58:29;25.33;;;17.37;;
14121;SDS011;7139;48.114;11.442;2023-02-11T01:00:57;25.53;;;16.37;;
14121;SDS011;7139;48.114;11.442;2023-02-11T01:03:24;25.27;;;17.63;;
14121;SDS011;7139;48.114;11.442;2023-02-11T01:05:51;24.67;;;16.63;;
14121;SDS011;7139;48.114;11.442;2023-02-11T01:08:18;25.30;;;16.83;;
14121;SDS011;7139;48.114;11.442;2023-02-11T01:10:52;21.07;;;15.50;;
14121;SDS011;7139;48.114;11.442;2023-02-11T01:13:19;22.17;;;15.70;;
14121;SDS011;7139;48.114;11.442;2023-02-11T01:15:46;21.33;;;15.30;;
14121;SDS011;7139;48.114;11.442;2023-02-11T01:18:15;23.80;;;15.53;;
14121;SDS011;7139;48.114;11.442;2023-02-11T01:20:41;20.83;;;16.30;;
14121;SDS011;7139;48.114;11.442;2023-02-11T01:23:08;22.83;;;16.93;;
14121;SDS011;7139;48.114;11.442;2023-02-11T01:25:35;21.77;;;15.30;;
14121;SDS011;7139;48.114;11.442;2023-02-11T01:28:02;20.87;;;15.03;;
14121;SDS011;7139;48.114;11.442;2023-02-11T01:30:28;28.27;;;15.90;;
14121;SDS011;7139;48.114;11.442;2023-02-11T01:32:55;22.53;;;15.37;;
14121;SDS011;7139;48.114;11.442;2023-02-11T01:35:23;21.17;;;15.00;;
14121;SDS011;7139;48.114;11.442;2023-02-11T01:37:50;21.80;;;15.80;;
14121;SDS011;7139;48.114;11.442;2023-02-11T01:40:17;22.03;;;15.17;;
14121;SDS011;7139;48.114;11.442;2023-02-11T01:42:44;20.63;;;15.53;;
14121;SDS011;7139;48.114;11.442;2023-02-11T01:48:19;22.77;;;14.77;;
14121;SDS011;7139;48.114;11.442;2023-02-11T01:50:49;22.23;;;15.40;;
14121;SDS011;7139;48.114;11.442;2023-02-11T01:53:19;21.23;;;15.20;;
14121;SDS011;7139;48.114;11.442;2023-02-11T01:56:04;22.27;;;16.10;;
14121;SDS011;7139;48.114;11.442;2023-02-11T01:58:49;21.33;;;14.43;;
14121;SDS011;7139;48.114;11.442;2023-02-11T02:01:21;19.80;;;14.90;;
14121;SDS011;7139;48.114;11.442;2023-02-11T02:03:50;19.63;;;14.67;;
14121;SDS011;7139;48.114;11.442;2023-02-11T02:06:21;19.57;;;14.10;;
14121;SDS011;7139;48.114;11.442;2023-02-11T02:08:52;19.47;;;13.97;;
14121;SDS011;7139;48.114;11.442;2023-02-11T02:11:22;20.27;;;14.20;;
14121;SDS011;7139;48.114;11.442;2023-02-11T02:13:50;19.87;;;15.30;;
14121;SDS011;7139;48.114;11.442;2023-02-11T02:16:18;20.93;;;15.40;;
14121;SDS011;7139;48.114;11.442;2023-02-11T02:18:47;20.30;;;15.50;;
14121;SDS011;7139;48.114;11.442;2023-02-11T02:21:31;19.80;;;14.50;;
14121;SDS011;7139;48.114;11.442;2023-02-11T02:24:30;20.80;;;14.00;;
14121;SDS011;7139;48.114;11.442;2023-02-11T02:27:13;18.83;;;14.80;;
14121;SDS011;7139;48.114;11.442;2023-02-11T02:33:05;19.77;;;14.57;;
14121;SDS011;7139;48.114;11.442;2023-02-11T02:35:41;20.00;;;14.37;;
14121;SDS011;7139;48.114;11.442;2023-02-11T02:38:18;19.80;;;14.60;;
14121;SDS011;7139;48.114;11.442;2023-02-11T02:40:49;20.27;;;14.60;;
14121;SDS011;7139;48.114;11.442;2023-02-11T02:43:19;22.40;;;14.97;;
14121;SDS011;7139;48.114;11.442;2023-02-11T02:45:48;21.40;;;15.30;;
14121;SDS011;7139;48.114;11.442;2023-02-11T02:48:23;21.37;;;15.40;;
14121;SDS011;7139;48.114;11.442;2023-02-11T02:50:52;19.97;;;15.10;;
14121;SDS011;7139;48.114;11.442;2023-02-11T02:53:35;20.33;;;14.33;;
14121;SDS011;7139;48.114;11.442;2023-02-11T02:56:11;19.70;;;14.00;;
14121;SDS011;7139;48.114;11.442;2023-02-11T03:01:49;18.70;;;14.27;;
14121;SDS011;7139;48.114;11.442;2023-02-11T03:04:27;17.53;;;13.80;;
14121;SDS011;7139;48.114;11.442;2023-02-11T03:07:00;18.53;;;13.60;;
14121;SDS011;7139;48.114;11.442;2023-02-11T03:09:34;18.97;;;13.63;;
14121;SDS011;7139;48.114;11.442;2023-02-11T03:12:04;21.10;;;14.03;;
14121;SDS011;7139;48.114;11.442;2023-02-11T03:14:32;19.13;;;13.70;;
14121;SDS011;7139;48.114;11.442;2023-02-11T03:17:01;18.80;;;13.03;;
14121;SDS011;7139;48.114;11.442;2023-02-11T03:19:33;17.23;;;12.70;;
14121;SDS011;7139;48.114;11.442;2023-02-11T03:22:03;20.30;;;12.60;;
14121;SDS011;7139;48.114;11.442;2023-02-11T03:24:36;19.90;;;13.03;;
14121;SDS011;7139;48.114;11.442;2023-02-11T03:27:08;16.63;;;12.77;;
14121;SDS011;7139;48.114;11.442;2023-02-11T03:29:42;15.23;;;11.53;;
14121;SDS011;7139;48.114;11.442;2023-02-11T03:32:16;16.20;;;11.77;;
14121;SDS011;7139;48.114;11.442;2023-02-11T03:34:52;17.23;;;12.10;;
14121;SDS011;7139;48.114;11.442;2023-02-11T03:37:22;18.17;;;11.77;;
14121;SDS011;7139;48.114;11.442;2023-02-11T03:39:54;14.73;;;11.73;;
14121;SDS011;7139;48.114;11.442;2023-02-11T03:42:26;17.80;;;12.73;;
14121;SDS011;7139;48.114;11.442;2023-02-11T03:44:58;15.57;;;10.70;;
14121;SDS011;7139;48.114;11.442;2023-02-11T03:47:28;14.00;;;10.83;;
14121;SDS011;7139;48.114;11.442;2023-02-11T03:49:59;14.53;;;10.63;;
14121;SDS011;7139;48.114;11.442;2023-02-11T03:52:28;14.13;;;11.00;;
14121;SDS011;7139;48.114;11.442;2023-02-11T03:54:57;14.97;;;10.70;;
14121;SDS011;7139;48.114;11.442;2023-02-11T03:57:27;15.73;;;11.57;;
14121;SDS011;7139;48.114;11.442;2023-02-11T03:59:55;12.63;;;9.80;;
14121;SDS011;7139;48.114;11.442;2023-02-11T04:02:24;13.47;;;9.77;;
14121;SDS011;7139;48.114;11.442;2023-02-11T04:04:53;14.03;;;9.83;;
14121;SDS011;7139;48.114;11.442;2023-02-11T04:07:21;13.53;;;10.13;;
14121;SDS011;7139;48.114;11.442;2023-02-11T04:09:48;11.97;;;9.27;;
14121;SDS011;7139;48.114;11.442;2023-02-11T04:12:15;15.40;;;10.40;;
14121;SDS011;7139;48.114;11.442;2023-02-11T04:14:41;13.10;;;10.17;;
14121;SDS011;7139;48.114;11.442;2023-02-11T04:17:08;12.57;;;9.73;;
14121;SDS011;7139;48.114;11.442;2023-02-11T04:19:36;14.20;;;9.93;;
14121;SDS011;7139;48.114;11.442;2023-02-11T04:22:03;13.90;;;9.90;;
14121;SDS011;7139;48.114;11.442;2023-02-11T04:24:31;13.03;;;9.33;;
14121;SDS011;7139;48.114;11.442;2023-02-11T04:26:58;12.57;;;9.87;;
14121;SDS011;7139;48.114;11.442;2023-02-11T04:29:25;15.40;;;9.83;;
14121;SDS011;7139;48.114;11.442;2023-02-11T04:31:52;14.17;;;9.97;;
14121;SDS011;7139;48.114;11.442;2023-02-11T04:34:20;13.60;;;9.97;;
14121;SDS011;7139;48.114;11.442;2023-02-11T04:36:48;14.43;;;10.53;;
14121;SDS011;7139;48.114;11.442;2023-02-11T04:39:15;13.43;;;9.70;;
14121;SDS011;7139;48.114;11.442;2023-02-11T04:41:43;12.30;;;9.60;;
14121;SDS011;7139;48.114;11.442;2023-02-11T04:44:10;12.77;;;9.53;;
14121;SDS011;7139;48.114;11.442;2023-02-11T04:46:36;14.10;;;10.00;;
14121;SDS011;7139;48.114;11.442;2023-02-11T04:49:03;13.77;;;9.73;;
14121;SDS011;7139;48.114;11.442;2023-02-11T04:51:30;11.73;;;9.30;;
14121;SDS011;7139;48.114;11.442;2023-02-11T04:53:57;14.20;;;10.10;;
14121;SDS011;7139;48.114;11.442;2023-02-11T04:56:24;12.63;;;9.47;;
14121;SDS011;7139;48.114;11.442;2023-02-11T04:58:52;12.93;;;9.93;;
14121;SDS011;7139;48.114;11.442;2023-02-11T05:01:19;16.50;;;10.57;;
14121;SDS011;7139;48.114;11.442;2023-02-11T05:03:45;13.23;;;10.00;;
14121;SDS011;7139;48.114;11.442;2023-02-11T05:06:12;14.27;;;10.20;;
14121;SDS011;7139;48.114;11.442;2023-02-11T05:08:39;13.07;;;9.83;;
14121;SDS011;7139;48.114;11.442;2023-02-11T05:11:06;12.60;;;9.53;;
14121;SDS011;7139;48.114;11.442;2023-02-11T05:13:33;13.33;;;9.60;;
14121;SDS011;7139;48.114;11.442;2023-02-11T05:16:01;12.20;;;9.80;;
14121;SDS011;7139;48.114;11.442;2023-02-11T05:18:28;12.60;;;9.57;;
14121;SDS011;7139;48.114;11.442;2023-02-11T05:20:55;11.70;;;9.10;;
14121;SDS011;7139;48.114;11.442;2023-02-11T05:23:21;13.03;;;10.07;;
14121;SDS011;7139;48.114;11.442;2023-02-11T05:25:48;13.57;;;10.17;;
14121;SDS011;7139;48.114;11.442;2023-02-11T05:28:15;15.43;;;10.57;;
14121;SDS011;7139;48.114;11.442;2023-02-11T05:30:42;14.37;;;9.73;;
14121;SDS011;7139;48.114;11.442;2023-02-11T05:33:10;12.40;;;9.87;;
14121;SDS011;7139;48.114;11.442;2023-02-11T05:35:37;14.33;;;10.73;;
14121;SDS011;7139;48.114;11.442;2023-02-11T05:38:03;12.93;;;9.60;;
14121;SDS011;7139;48.114;11.442;2023-02-11T05:40:30;13.33;;;10.17;;
14121;SDS011;7139;48.114;11.442;2023-02-11T05:42:57;14.47;;;10.07;;
14121;SDS011;7139;48.114;11.442;2023-02-11T05:45:24;14.77;;;9.83;;
14121;SDS011;7139;48.114;11.442;2023-02-11T05:47:50;11.67;;;9.63;;
14121;SDS011;7139;48.114;11.442;2023-02-11T05:50:18;12.43;;;9.90;;
14121;SDS011;7139;48.114;11.442;2023-02-11T05:52:45;13.30;;;9.53;;
14121;SDS011;7139;48.114;11.442;2023-02-11T05:55:12;13.93;;;10.50;;
14121;SDS011;7139;48.114;11.442;2023-02-11T05:57:39;14.40;;;10.07;;
14121;SDS011;7139;48.114;11.442;2023-02-11T06:00:06;13.27;;;9.47;;
14121;SDS011;7139;48.114;11.442;2023-02-11T06:02:34;11.93;;;8.97;;
14121;SDS011;7139;48.114;11.442;2023-02-11T06:05:01;14.80;;;9.73;;
14121;SDS011;7139;48.114;11.442;2023-02-11T06:07:30;12.67;;;9.50;;
14121;SDS011;7139;48.114;11.442;2023-02-11T06:09:57;12.23;;;9.17;;
14121;SDS011;7139;48.114;11.442;2023-02-11T06:12:23;13.10;;;9.07;;
14121;SDS011;7139;48.114;11.442;2023-02-11T06:14:51;11.67;;;8.67;;
14121;SDS011;7139;48.114;11.442;2023-02-11T06:17:18;11.67;;;8.13;;
14121;SDS011;7139;48.114;11.442;2023-02-11T06:19:45;11.43;;;8.20;;
14121;SDS011;7139;48.114;11.442;2023-02-11T06:22:11;10.03;;;8.53;;
14121;SDS011;7139;48.114;11.442;2023-02-11T06:24:39;10.97;;;8.60;;
14121;SDS011;7139;48.114;11.442;2023-02-11T06:27:06;12.03;;;8.70;;
14121;SDS011;7139;48.114;11.442;2023-02-11T06:29:33;11.33;;;8.60;;
14121;SDS011;7139;48.114;11.442;2023-02-11T06:32:00;10.03;;;8.10;;
14121;SDS011;7139;48.114;11.442;2023-02-11T06:34:27;11.93;;;8.63;;
14121;SDS011;7139;48.114;11.442;2023-02-11T06:36:53;10.73;;;8.63;;
14121;SDS011;7139;48.114;11.442;2023-02-11T06:39:20;11.00;;;8.20;;
14121;SDS011;7139;48.114;11.442;2023-02-11T06:41:48;10.47;;;8.30;;
14121;SDS011;7139;48.114;11.442;2023-02-11T06:44:15;9.20;;;7.90;;
14121;SDS011;7139;48.114;11.442;2023-02-11T06:46:42;12.27;;;8.50;;
14121;SDS011;7139;48.114;11.442;2023-02-11T06:49:08;10.37;;;8.40;;
14121;SDS011;7139;48.114;11.442;2023-02-11T06:51:35;12.47;;;9.17;;
14121;SDS011;7139;48.114;11.442;2023-02-11T06:54:03;12.80;;;9.50;;
14121;SDS011;7139;48.114;11.442;2023-02-11T06:56:31;13.07;;;9.33;;
14121;SDS011;7139;48.114;11.442;2023-02-11T06:59:00;10.77;;;8.17;;
14121;SDS011;7139;48.114;11.442;2023-02-11T07:01:27;9.80;;;8.07;;
14121;SDS011;7139;48.114;11.442;2023-02-11T07:03:54;10.70;;;8.30;;
14121;SDS011;7139;48.114;11.442;2023-02-11T07:06:21;11.20;;;8.10;;
14121;SDS011;7139;48.114;11.442;2023-02-11T07:08:52;10.47;;;8.27;;
14121;SDS011;7139;48.114;11.442;2023-02-11T07:14:14;9.77;;;8.23;;
14121;SDS011;7139;48.114;11.442;2023-02-11T07:16:41;9.37;;;7.90;;
14121;SDS011;7139;48.114;11.442;2023-02-11T07:19:08;9.93;;;7.80;;
14121;SDS011;7139;48.114;11.442;2023-02-11T07:21:35;11.23;;;8.40;;
14121;SDS011;7139;48.114;11.442;2023-02-11T07:24:04;11.83;;;8.73;;
14121;SDS011;7139;48.114;11.442;2023-02-11T07:26:32;10.73;;;7.90;;
14121;SDS011;7139;48.114;11.442;2023-02-11T07:28:59;10.73;;;8.47;;
14121;SDS011;7139;48.114;11.442;2023-02-11T07:31:28;9.80;;;7.93;;
14121;SDS011;7139;48.114;11.442;2023-02-11T07:33:56;10.20;;;8.03;;
14121;SDS011;7139;48.114;11.442;2023-02-11T07:36:24;10.07;;;7.63;;
14121;SDS011;7139;48.114;11.442;2023-02-11T07:38:51;8.27;;;6.80;;
14121;SDS011;7139;48.114;11.442;2023-02-11T07:41:20;7.80;;;6.97;;
14121;SDS011;7139;48.114;11.442;2023-02-11T07:43:48;9.53;;;8.03;;
14121;SDS011;7139;48.114;11.442;2023-02-11T07:46:16;9.07;;;7.53;;
14121;SDS011;7139;48.114;11.442;2023-02-11T07:48:46;8.73;;;7.13;;
14121;SDS011;7139;48.114;11.442;2023-02-11T07:51:13;9.93;;;7.50;;
14121;SDS011;7139;48.114;11.442;2023-02-11T07:53:42;11.13;;;7.73;;
14121;SDS011;7139;48.114;11.442;2023-02-11T07:56:09;9.37;;;7.60;;
14121;SDS011;7139;48.114;11.442;2023-02-11T07:58:37;9.87;;;7.90;;
14121;SDS011;7139;48.114;11.442;2023-02-11T08:01:07;8.27;;;7.03;;
14121;SDS011;7139;48.114;11.442;2023-02-11T08:03:35;9.03;;;7.47;;
14121;SDS011;7139;48.114;11.442;2023-02-11T08:06:03;9.63;;;7.63;;
14121;SDS011;7139;48.114;11.442;2023-02-11T08:08:31;9.43;;;7.70;;
14121;SDS011;7139;48.114;11.442;2023-02-11T08:11:00;8.33;;;7.00;;
14121;SDS011;7139;48.114;11.442;2023-02-11T08:13:31;9.43;;;7.50;;
14121;SDS011;7139;48.114;11.442;2023-02-11T08:15:58;8.50;;;7.57;;
14121;SDS011;7139;48.114;11.442;2023-02-11T08:18:25;9.50;;;7.70;;
14121;SDS011;7139;48.114;11.442;2023-02-11T08:20:52;7.83;;;6.70;;
14121;SDS011;7139;48.114;11.442;2023-02-11T08:23:20;9.33;;;6.80;;
14121;SDS011;7139;48.114;11.442;2023-02-11T08:25:46;8.97;;;6.90;;
14121;SDS011;7139;48.114;11.442;2023-02-11T08:28:13;8.60;;;6.87;;
14121;SDS011;7139;48.114;11.442;2023-02-11T08:30:40;7.90;;;6.80;;
14121;SDS011;7139;48.114;11.442;2023-02-11T08:33:07;11.13;;;7.70;;
14121;SDS011;7139;48.114;11.442;2023-02-11T08:35:34;10.10;;;7.33;;
14121;SDS011;7139;48.114;11.442;2023-02-11T08:38:01;9.43;;;7.40;;
14121;SDS011;7139;48.114;11.442;2023-02-11T08:40:29;9.57;;;7.70;;
14121;SDS011;7139;48.114;11.442;2023-02-11T08:42:56;10.27;;;8.50;;
14121;SDS011;7139;48.114;11.442;2023-02-11T08:45:22;8.47;;;7.17;;
14121;SDS011;7139;48.114;11.442;2023-02-11T08:47:49;12.30;;;7.63;;
14121;SDS011;7139;48.114;11.442;2023-02-11T08:50:16;9.53;;;8.03;;
14121;SDS011;7139;48.114;11.442;2023-02-11T08:52:42;9.93;;;7.77;;
14121;SDS011;7139;48.114;11.442;2023-02-11T08:55:09;9.57;;;7.87;;
14121;SDS011;7139;48.114;11.442;2023-02-11T08:57:37;10.20;;;8.00;;
14121;SDS011;7139;48.114;11.442;2023-02-11T09:00:05;9.20;;;7.60;;
14121;SDS011;7139;48.114;11.442;2023-02-11T09:02:32;11.57;;;8.10;;
14121;SDS011;7139;48.114;11.442;2023-02-11T09:04:59;10.03;;;7.77;;
14121;SDS011;7139;48.114;11.442;2023-02-11T09:07:26;9.27;;;7.60;;
14121;SDS011;7139;48.114;11.442;2023-02-11T09:09:53;10.83;;;8.53;;
14121;SDS011;7139;48.114;11.442;2023-02-11T09:12:20;8.27;;;7.40;;
14121;SDS011;7139;48.114;11.442;2023-02-11T09:14:48;10.47;;;8.00;;
14121;SDS011;7139;48.114;11.442;2023-02-11T09:17:15;10.30;;;8.07;;
14121;SDS011;7139;48.114;11.442;2023-02-11T09:19:42;10.47;;;8.47;;
14121;SDS011;7139;48.114;11.442;2023-02-11T09:22:08;10.37;;;8.23;;
14121;SDS011;7139;48.114;11.442;2023-02-11T09:24:35;10.53;;;8.03;;
14121;SDS011;7139;48.114;11.442;2023-02-11T09:27:02;9.50;;;7.87;;
14121;SDS011;7139;48.114;11.442;2023-02-11T09:29:29;9.77;;;8.33;;
14121;SDS011;7139;48.114;11.442;2023-02-11T09:31:58;10.13;;;8.43;;
14121;SDS011;7139;48.114;11.442;2023-02-11T09:34:25;10.07;;;8.57;;
14121;SDS011;7139;48.114;11.442;2023-02-11T09:36:51;10.67;;;8.67;;
14121;SDS011;7139;48.114;11.442;2023-02-11T09:39:18;11.67;;;8.90;;
14121;SDS011;7139;48.114;11.442;2023-02-11T09:41:53;11.77;;;8.37;;
14121;SDS011;7139;48.114;11.442;2023-02-11T09:44:41;11.37;;;8.37;;
14121;SDS011;7139;48.114;11.442;2023-02-11T09:47:15;9.77;;;7.93;;
14121;SDS011;7139;48.114;11.442;2023-02-11T09:49:50;11.07;;;8.40;;
14121;SDS011;7139;48.114;11.442;2023-02-11T09:52:23;9.97;;;8.60;;
14121;SDS011;7139;48.114;11.442;2023-02-11T09:54:56;10.37;;;8.27;;
14121;SDS011;7139;48.114;11.442;2023-02-11T09:57:25;14.83;;;9.07;;
14121;SDS011;7139;48.114;11.442;2023-02-11T09:59:56;10.03;;;8.53;;
14121;SDS011;7139;48.114;11.442;2023-02-11T10:02:26;9.93;;;8.17;;
14121;SDS011;7139;48.114;11.442;2023-02-11T10:05:09;10.73;;;8.00;;
14121;SDS011;7139;48.114;11.442;2023-02-11T10:07:45;8.73;;;7.60;;
14121;SDS011;7139;48.114;11.442;2023-02-11T10:10:19;9.77;;;7.47;;
14121;SDS011;7139;48.114;11.442;2023-02-11T10:13:02;10.37;;;8.10;;
14121;SDS011;7139;48.114;11.442;2023-02-11T10:15:40;9.77;;;8.33;;
14121;SDS011;7139;48.114;11.442;2023-02-11T10:18:15;9.67;;;8.37;;
14121;SDS011;7139;48.114;11.442;2023-02-11T10:21:02;9.77;;;7.80;;
14121;SDS011;7139;48.114;11.442;2023-02-11T10:23:38;10.50;;;7.80;;
14121;SDS011;7139;48.114;11.442;2023-02-11T10:26:09;11.33;;;7.97;;
14121;SDS011;7139;48.114;11.442;2023-02-11T10:28:39;10.33;;;8.30;;
14121;SDS011;7139;48.114;11.442;2023-02-11T10:31:10;13.93;;;9.83;;
14121;SDS011;7139;48.114;11.442;2023-02-11T10:33:42;12.70;;;9.50;;
14121;SDS011;7139;48.114;11.442;2023-02-11T10:36:12;11.40;;;9.03;;
14121;SDS011;7139;48.114;11.442;2023-02-11T10:38:41;13.50;;;8.70;;
14121;SDS011;7139;48.114;11.442;2023-02-11T10:41:08;12.50;;;9.10;;
14121;SDS011;7139;48.114;11.442;2023-02-11T10:43:37;12.90;;;9.90;;
14121;SDS011;7139;48.114;11.442;2023-02-11T10:46:09;12.10;;;9.30;;
14121;SDS011;7139;48.114;11.442;2023-02-11T10:48:43;13.20;;;9.70;;
14121;SDS011;7139;48.114;11.442;2023-02-11T10:51:17;13.40;;;9.70;;
14121;SDS011;7139;48.114;11.442;2023-02-11T10:53:46;13.07;;;9.57;;
14121;SDS011;7139;48.114;11.442;2023-02-11T10:56:19;13.17;;;9.50;;
14121;SDS011;7139;48.114;11.442;2023-02-11T10:58:56;13.13;;;9.60;;
14121;SDS011;7139;48.114;11.442;2023-02-11T11:01:36;12.10;;;8.53;;
14121;SDS011;7139;48.114;11.442;2023-02-11T11:04:09;12.43;;;8.70;;
14121;SDS011;7139;48.114;11.442;2023-02-11T11:07:08;10.87;;;8.87;;
14121;SDS011;7139;48.114;11.442;2023-02-11T11:09:42;14.90;;;8.43;;
14121;SDS011;7139;48.114;11.442;2023-02-11T11:12:22;11.40;;;8.17;;
14121;SDS011;7139;48.114;11.442;2023-02-11T11:14:53;12.77;;;8.57;;
14121;SDS011;7139;48.114;11.442;2023-02-11T11:17:20;13.30;;;8.83;;
14121;SDS011;7139;48.114;11.442;2023-02-11T11:19:48;15.10;;;9.07;;
14121;SDS011;7139;48.114;11.442;2023-02-11T11:22:19;12.30;;;8.53;;
14121;SDS011;7139;48.114;11.442;2023-02-11T11:24:47;13.93;;;9.60;;
14121;SDS011;7139;48.114;11.442;2023-02-11T11:27:19;14.60;;;8.93;;
14121;SDS011;7139;48.114;11.442;2023-02-11T11:29:49;14.80;;;9.47;;
14121;SDS011;7139;48.114;11.442;2023-02-11T11:32:19;11.53;;;8.53;;
14121;SDS011;7139;48.114;11.442;2023-02-11T11:34:51;11.97;;;8.73;;
14121;SDS011;7139;48.114;11.442;2023-02-11T11:37:20;12.47;;;9.00;;
14121;SDS011;7139;48.114;11.442;2023-02-11T11:39:53;10.47;;;8.03;;
14121;SDS011;7139;48.114;11.442;2023-02-11T11:42:26;11.47;;;8.10;;
14121;SDS011;7139;48.114;11.442;2023-02-11T11:44:55;12.00;;;8.27;;
14121;SDS011;7139;48.114;11.442;2023-02-11T11:47:28;14.33;;;8.60;;
14121;SDS011;7139;48.114;11.442;2023-02-11T11:53:02;15.57;;;8.67;;
14121;SDS011;7139;48.114;11.442;2023-02-11T11:55:34;12.03;;;8.57;;
14121;SDS011;7139;48.114;11.442;2023-02-11T11:58:08;10.33;;;7.93;;
14121;SDS011;7139;48.114;11.442;2023-02-11T12:00:40;12.87;;;8.73;;
14121;SDS011;7139;48.114;11.442;2023-02-11T12:03:28;15.63;;;8.63;;
14121;SDS011;7139;48.114;11.442;2023-02-11T12:06:20;11.23;;;9.30;;
14121;SDS011;7139;48.114;11.442;2023-02-11T12:08:58;11.07;;;8.23;;
14121;SDS011;7139;48.114;11.442;2023-02-11T12:11:36;10.87;;;8.07;;
14121;SDS011;7139;48.114;11.442;2023-02-11T12:14:16;12.53;;;8.50;;
14121;SDS011;7139;48.114;11.442;2023-02-11T12:16:52;11.43;;;8.40;;
14121;SDS011;7139;48.114;11.442;2023-02-11T12:19:32;10.50;;;8.50;;
14121;SDS011;7139;48.114;11.442;2023-02-11T12:22:23;12.10;;;8.63;;
14121;SDS011;7139;48.114;11.442;2023-02-11T12:25:04;12.67;;;8.63;;
14121;SDS011;7139;48.114;11.442;2023-02-11T12:27:47;11.03;;;8.27;;
14121;SDS011;7139;48.114;11.442;2023-02-11T12:30:34;11.27;;;9.07;;
14121;SDS011;7139;48.114;11.442;2023-02-11T12:33:09;12.83;;;8.37;;
14121;SDS011;7139;48.114;11.442;2023-02-11T12:35:51;11.43;;;8.30;;
14121;SDS011;7139;48.114;11.442;2023-02-11T12:41:21;11.23;;;8.60;;
14121;SDS011;7139;48.114;11.442;2023-02-11T12:44:20;10.20;;;8.23;;
14121;SDS011;7139;48.114;11.442;2023-02-11T12:46:52;12.93;;;8.63;;
14121;SDS011;7139;48.114;11.442;2023-02-11T12:49:33;12.77;;;8.67;;
14121;SDS011;7139;48.114;11.442;2023-02-11T12:52:18;12.57;;;10.23;;
14121;SDS011;7139;48.114;11.442;2023-02-11T12:54:53;14.33;;;9.43;;
14121;SDS011;7139;48.114;11.442;2023-02-11T12:57:26;13.70;;;10.10;;
14121;SDS011;7139;48.114;11.442;2023-02-11T12:59:57;11.50;;;8.73;;
14121;SDS011;7139;48.114;11.442;2023-02-11T13:02:32;12.57;;;9.27;;
14121;SDS011;7139;48.114;11.442;2023-02-11T13:05:03;11.43;;;8.43;;
14121;SDS011;7139;48.114;11.442;2023-02-11T13:07:38;10.30;;;7.63;;
14121;SDS011;7139;48.114;11.442;2023-02-11T13:10:14;9.83;;;7.70;;
14121;SDS011;7139;48.114;11.442;2023-02-11T13:12:53;10.43;;;7.20;;
14121;SDS011;7139;48.114;11.442;2023-02-11T13:15:39;11.17;;;8.00;;
14121;SDS011;7139;48.114;11.442;2023-02-11T13:18:11;12.03;;;8.07;;
14121;SDS011;7139;48.114;11.442;2023-02-11T13:20:46;11.67;;;7.73;;
14121;SDS011;7139;48.114;11.442;2023-02-11T13:23:20;11.03;;;7.83;;
14121;SDS011;7139;48.114;11.442;2023-02-11T13:25:51;11.23;;;7.83;;
14121;SDS011;7139;48.114;11.442;2023-02-11T13:28:26;8.30;;;6.90;;
14121;SDS011;7139;48.114;11.442;2023-02-11T13:31:01;11.53;;;7.33;;
14121;SDS011;7139;48.114;11.442;2023-02-11T13:33:32;10.07;;;7.33;;
14121;SDS011;7139;48.114;11.442;2023-02-11T13:36:10;10.37;;;8.37;;
14121;SDS011;7139;48.114;11.442;2023-02-11T13:38:50;9.93;;;7.43;;
14121;SDS011;7139;48.114;11.442;2023-02-11T13:41:19;11.10;;;7.00;;
14121;SDS011;7139;48.114;11.442;2023-02-11T13:44:03;11.10;;;8.27;;
14121;SDS011;7139;48.114;11.442;2023-02-11T13:46:47;11.43;;;7.87;;
14121;SDS011;7139;48.114;11.442;2023-02-11T13:49:21;9.97;;;7.33;;
14121;SDS011;7139;48.114;11.442;2023-02-11T13:51:50;7.87;;;6.20;;
14121;SDS011;7139;48.114;11.442;2023-02-11T13:54:21;9.90;;;7.77;;
14121;SDS011;7139;48.114;11.442;2023-02-11T13:59:55;9.60;;;7.27;;
14121;SDS011;7139;48.114;11.442;2023-02-11T14:02:24;10.07;;;7.37;;
14121;SDS011;7139;48.114;11.442;2023-02-11T14:05:22;9.83;;;7.17;;
14121;SDS011;7139;48.114;11.442;2023-02-11T14:08:13;10.27;;;7.27;;
14121;SDS011;7139;48.114;11.442;2023-02-11T14:11:00;10.00;;;7.43;;
14121;SDS011;7139;48.114;11.442;2023-02-11T14:13:32;8.70;;;6.93;;
14121;SDS011;7139;48.114;11.442;2023-02-11T14:16:05;9.43;;;7.33;;
14121;SDS011;7139;48.114;11.442;2023-02-11T14:21:29;9.07;;;7.97;;
14121;SDS011;7139;48.114;11.442;2023-02-11T14:27:04;19.27;;;9.90;;
14121;SDS011;7139;48.114;11.442;2023-02-11T14:29:34;12.33;;;10.03;;
14121;SDS011;7139;48.114;11.442;2023-02-11T14:32:09;12.33;;;7.70;;
14121;SDS011;7139;48.114;11.442;2023-02-11T14:34:50;13.13;;;9.17;;
14121;SDS011;7139;48.114;11.442;2023-02-11T14:37:27;12.90;;;9.73;;
14121;SDS011;7139;48.114;11.442;2023-02-11T14:40:08;12.20;;;8.70;;
14121;SDS011;7139;48.114;11.442;2023-02-11T14:42:43;13.53;;;10.40;;
14121;SDS011;7139;48.114;11.442;2023-02-11T14:45:13;12.60;;;10.03;;
14121;SDS011;7139;48.114;11.442;2023-02-11T14:47:47;14.43;;;10.27;;
14121;SDS011;7139;48.114;11.442;2023-02-11T14:50:18;13.03;;;10.07;;
14121;SDS011;7139;48.114;11.442;2023-02-11T14:52:49;16.53;;;11.60;;
14121;SDS011;7139;48.114;11.442;2023-02-11T14:55:18;15.83;;;10.43;;
14121;SDS011;7139;48.114;11.442;2023-02-11T14:58:03;12.70;;;10.80;;
14121;SDS011;7139;48.114;11.442;2023-02-11T15:00:45;12.30;;;9.93;;
14121;SDS011;7139;48.114;11.442;2023-02-11T15:03:28;20.07;;;13.40;;
14121;SDS011;7139;48.114;11.442;2023-02-11T15:05:57;20.50;;;13.13;;
14121;SDS011;7139;48.114;11.442;2023-02-11T15:08:25;15.00;;;10.83;;
14121;SDS011;7139;48.114;11.442;2023-02-11T15:10:52;13.80;;;10.80;;
14121;SDS011;7139;48.114;11.442;2023-02-11T15:13:22;16.87;;;11.63;;
14121;SDS011;7139;48.114;11.442;2023-02-11T15:15:56;16.27;;;12.47;;
14121;SDS011;7139;48.114;11.442;2023-02-11T15:18:31;16.27;;;12.13;;
14121;SDS011;7139;48.114;11.442;2023-02-11T15:21:02;16.27;;;12.07;;